Portada
METAR-TAF:

METAR-TAF

Aeroports :

Flora Municipal Airport

Flora, Illinois, Estats Units d'Amèrica

latitud: 38-39-54N, longitud: 088-27-11W, altitud: 144 m

Observació

L'informe es va fer fa 33 minuts, a les 13:35 UTC
Vent calma
Temperatura 5°C
Humitat 87%
Pressió 1012 hPa
Visibilitat: 11.3 km
Cel cobert a una alçada de 1400 ft
boirina

METAR: KFOA 181335Z AUTO 00000KT 7SM BR OVC014 05/03 A2987 RMK AO2 TSNO

Hora: 08:08 (14:08 UTC)


TAF: manca

Observacions i pronòstics meteorològics de més de 4000 aeroports (METAR i TAF).

Les estacions disponibles són els punts grocs i vermells al mapa.

Posi el ratolí al punt desitjat per veure el nom de l'estació.

Feu clic per veure les observacions i els pronòstics meteorològics.

Per canviar el mapa: feu clic els botons verds amb una creu de color negre per apropar; al botó verd amb un guió per allunyar la imatge; o en les fletxes verdes per a mapes adjacents.


METAR-TAF: